Time;durP1;ratioP1;P1;durP2;ratioP2;P2;SDS_P1;SDS_P2;PMS_P1;PMS_P2;Temp;Humidity;BMP_temperature;BMP_pressure;BME280_temperature;BME280_humidity;BME280_pressure;Samples;Min_cycle;Max_cycle;Signal;HPM_P1;HPM_P2
2022/08/21 00:00:39;;;;;;;0.70;0.10;;;22.10;99.90;;;;;;5059897;28;20897;-73
2022/08/21 00:03:13;;;;;;;0.97;0.30;;;22.00;99.90;;;;;;5040191;28;20505;-74
2022/08/21 00:05:50;;;;;;;0.70;0.20;;;22.10;99.90;;;;;;5040828;28;20443;-72
2022/08/21 00:08:18;;;;;;;0.70;0.10;;;22.00;99.90;;;;;;5040936;28;21003;-73
2022/08/21 00:10:48;;;;;;;0.70;0.20;;;22.00;99.90;;;;;;5055431;28;20474;-72
2022/08/21 00:13:19;;;;;;;0.70;0.20;;;22.00;99.90;;;;;;5055342;28;20476;-72
2022/08/21 00:15:49;;;;;;;0.70;0.10;;;22.00;99.90;;;;;;5055597;28;20448;-73
2022/08/21 00:18:19;;;;;;;0.70;0.10;;;22.00;99.90;;;;;;5054650;28;20557;-72
2022/08/21 00:20:48;;;;;;;0.70;0.17;;;22.00;99.90;;;;;;5054716;28;20446;-71
2022/08/21 00:23:16;;;;;;;0.70;0.20;;;22.00;99.90;;;;;;5051479;28;20442;-72
2022/08/21 00:25:45;;;;;;;1.00;0.80;;;22.00;99.90;;;;;;5053509;28;20457;-72
2022/08/21 00:28:14;;;;;;;0.70;0.20;;;21.90;99.90;;;;;;5053292;28;20478;-73
2022/08/21 00:30:42;;;;;;;0.70;0.10;;;21.90;99.90;;;;;;5064445;28;21061;-74
2022/08/21 00:33:11;;;;;;;0.70;0.10;;;22.00;99.90;;;;;;5063800;28;20458;-74
2022/08/21 00:35:43;;;;;;;0.70;0.10;;;21.90;99.90;;;;;;5064805;28;20442;-73
2022/08/21 00:38:11;;;;;;;0.70;0.20;;;21.90;99.90;;;;;;5054159;28;20480;-72
2022/08/21 00:40:42;;;;;;;0.70;0.20;;;21.90;99.90;;;;;;5043188;28;20576;-71
2022/08/21 00:43:16;;;;;;;0.70;0.10;;;21.80;99.90;;;;;;5042818;28;20443;-73
2022/08/21 00:45:45;;;;;;;0.70;0.20;;;21.90;99.90;;;;;;5038995;28;20457;-73
2022/08/21 00:48:13;;;;;;;0.70;0.20;;;21.90;99.90;;;;;;5040189;28;20467;-72
2022/08/21 00:50:47;;;;;;;0.70;0.10;;;21.90;99.90;;;;;;5043943;28;20475;-73
2022/08/21 00:53:17;;;;;;;0.70;0.10;;;21.90;99.90;;;;;;5046092;28;20451;-73
2022/08/21 00:55:45;;;;;;;0.70;0.10;;;21.80;99.90;;;;;;5044452;28;20447;-73
2022/08/21 00:58:16;;;;;;;0.70;0.10;;;21.80;99.90;;;;;;5043318;28;21030;-73
2022/08/21 01:00:48;;;;;;;0.70;0.20;;;21.80;99.90;;;;;;5052090;28;20477;-73
2022/08/21 01:03:19;;;;;;;0.70;0.20;;;21.80;99.90;;;;;;5047048;28;20448;-74
2022/08/21 01:05:52;;;;;;;0.70;0.10;;;21.70;99.90;;;;;;5047201;28;20431;-74
2022/08/21 01:08:21;;;;;;;0.70;0.20;;;21.80;99.90;;;;;;5038894;28;20474;-72
2022/08/21 01:10:50;;;;;;;0.70;0.10;;;21.80;99.90;;;;;;5035432;28;20487;-72
2022/08/21 01:13:24;;;;;;;0.70;0.20;;;21.80;99.90;;;;;;5036963;28;20452;-71
2022/08/21 01:15:55;;;;;;;0.70;0.10;;;21.80;99.90;;;;;;5055016;28;20493;-72
2022/08/21 01:18:24;;;;;;;0.70;0.10;;;21.80;99.90;;;;;;5055147;28;20834;-73
2022/08/21 01:21:11;;;;;;;0.70;0.20;;;21.80;99.90;;;;;;5054951;28;20473;-72
2022/08/21 01:23:42;;;;;;;0.70;0.20;;;21.80;99.90;;;;;;5055996;28;20447;-72
2022/08/21 01:26:12;;;;;;;0.70;0.20;;;21.80;99.90;;;;;;5038524;28;20514;-71
2022/08/21 01:28:43;;;;;;;0.70;0.10;;;21.80;99.90;;;;;;5040793;28;20477;-72
2022/08/21 01:31:14;;;;;;;0.70;0.10;;;21.80;99.90;;;;;;5056312;28;21012;-72
2022/08/21 01:33:43;;;;;;;0.70;0.20;;;21.80;99.90;;;;;;5055199;28;20472;-72
2022/08/21 01:36:14;;;;;;;0.70;0.20;;;21.80;99.90;;;;;;5054371;28;20455;-72
2022/08/21 01:38:42;;;;;;;0.70;0.10;;;21.80;99.90;;;;;;5054398;28;20462;-72
2022/08/21 01:41:10;;;;;;;0.70;0.10;;;21.80;99.90;;;;;;5053300;28;20941;-73
2022/08/21 01:43:38;;;;;;;0.70;0.10;;;21.80;99.90;;;;;;5044490;28;20448;-72
2022/08/21 01:46:07;;;;;;;0.70;0.20;;;21.80;99.90;;;;;;5033343;28;20450;-72
2022/08/21 01:48:35;;;;;;;0.70;0.10;;;21.80;99.90;;;;;;5033194;28;20974;-72
2022/08/21 01:51:03;;;;;;;0.70;0.10;;;21.70;99.90;;;;;;5033398;28;20475;-72
2022/08/21 01:53:35;;;;;;;0.70;0.10;;;21.80;99.90;;;;;;5040479;28;20446;-72
2022/08/21 01:56:05;;;;;;;0.70;0.10;;;21.70;99.90;;;;;;5053564;28;20446;-72
2022/08/21 01:58:39;;;;;;;0.70;0.20;;;21.70;99.90;;;;;;5053325;28;20940;-74
2022/08/21 02:01:07;;;;;;;0.70;0.20;;;21.70;99.90;;;;;;5053070;28;20447;-73
2022/08/21 02:03:36;;;;;;;0.70;0.20;;;21.70;99.90;;;;;;5045336;28;20454;-72
2022/08/21 02:06:04;;;;;;;0.70;0.10;;;21.70;99.90;;;;;;5032548;28;20548;-72
2022/08/21 02:08:34;;;;;;;0.70;0.20;;;21.70;99.90;;;;;;5032829;28;20919;-72
2022/08/21 02:11:02;;;;;;;0.70;0.10;;;21.60;99.90;;;;;;5032788;28;20475;-72
2022/08/21 02:13:30;;;;;;;0.70;0.10;;;21.60;99.90;;;;;;5038560;28;20952;-72
2022/08/21 02:15:58;;;;;;;0.70;0.10;;;21.50;99.90;;;;;;5052808;28;20866;-72
2022/08/21 02:18:26;;;;;;;0.70;0.10;;;21.50;99.90;;;;;;5052977;28;20462;-73
2022/08/21 02:20:54;;;;;;;0.70;0.20;;;21.50;99.90;;;;;;5043955;28;20454;-72
2022/08/21 02:23:24;;;;;;;0.70;0.20;;;21.50;99.90;;;;;;5033722;28;20442;-73
2022/08/21 02:25:56;;;;;;;0.70;0.10;;;21.50;99.90;;;;;;5033289;28;20460;-72
2022/08/21 02:28:24;;;;;;;0.70;0.10;;;21.50;99.90;;;;;;5035064;28;21016;-73
2022/08/21 02:30:55;;;;;;;0.70;0.20;;;21.50;99.90;;;;;;5052324;28;20522;-73
2022/08/21 02:33:24;;;;;;;0.70;0.10;;;21.50;99.90;;;;;;5052762;28;20542;-73
2022/08/21 02:35:53;;;;;;;0.70;0.10;;;21.50;99.90;;;;;;5052521;28;20820;-72
2022/08/21 02:38:24;;;;;;;0.70;0.10;;;21.50;99.90;;;;;;5051801;28;20474;-73
2022/08/21 02:40:53;;;;;;;0.70;0.20;;;21.50;99.90;;;;;;5044546;28;20452;-73
2022/08/21 02:43:25;;;;;;;0.70;0.10;;;21.50;99.90;;;;;;5032326;28;20451;-73
2022/08/21 02:45:54;;;;;;;0.70;0.10;;;21.50;99.90;;;;;;5031975;28;20895;-72
2022/08/21 02:48:25;;;;;;;0.70;0.10;;;21.40;99.90;;;;;;5031925;28;20463;-73
2022/08/21 02:50:56;;;;;;;0.70;0.10;;;21.40;99.90;;;;;;5039145;28;20481;-73
2022/08/21 02:53:24;;;;;;;0.70;0.20;;;21.40;99.90;;;;;;5052747;28;20446;-72
2022/08/21 02:55:54;;;;;;;0.70;0.13;;;21.40;99.90;;;;;;5050944;28;20490;-72
2022/08/21 02:58:25;;;;;;;0.70;0.13;;;21.40;99.90;;;;;;5052075;28;20469;-72
2022/08/21 03:00:54;;;;;;;0.70;0.10;;;21.40;99.90;;;;;;5051916;28;20446;-72
2022/08/21 03:03:22;;;;;;;0.70;0.10;;;21.40;99.90;;;;;;5053032;28;20447;-72
2022/08/21 03:05:50;;;;;;;0.70;0.10;;;21.30;99.90;;;;;;5052352;28;20446;-72
2022/08/21 03:08:19;;;;;;;0.70;0.10;;;21.30;99.90;;;;;;5051699;28;20473;-73
2022/08/21 03:10:48;;;;;;;0.70;0.20;;;21.30;99.90;;;;;;5051064;28;20446;-72
2022/08/21 03:13:19;;;;;;;0.70;0.10;;;21.20;99.90;;;;;;5052789;28;20443;-72
2022/08/21 03:15:48;;;;;;;0.70;0.10;;;21.20;99.90;;;;;;5052857;28;20450;-72
2022/08/21 03:18:17;;;;;;;0.70;0.10;;;21.20;99.90;;;;;;5052268;28;20478;-73
2022/08/21 03:20:46;;;;;;;0.70;0.20;;;21.20;99.90;;;;;;5046338;28;20455;-72
2022/08/21 03:23:15;;;;;;;0.70;0.10;;;21.20;99.90;;;;;;5031947;28;20439;-73
2022/08/21 03:25:46;;;;;;;0.70;0.10;;;21.20;99.90;;;;;;5043247;28;21023;-73
2022/08/21 03:28:17;;;;;;;0.70;0.10;;;21.10;99.90;;;;;;5051236;28;20542;-73
2022/08/21 03:30:49;;;;;;;0.70;0.20;;;21.10;99.90;;;;;;5051547;28;20446;-73
2022/08/21 03:33:18;;;;;;;0.70;0.20;;;21.20;99.90;;;;;;5051522;28;21056;-73
2022/08/21 03:35:52;;;;;;;0.70;0.20;;;21.10;99.90;;;;;;5051825;28;20446;-73
2022/08/21 03:38:20;;;;;;;0.70;0.10;;;21.10;99.90;;;;;;5052023;28;20512;-73
2022/08/21 03:40:53;;;;;;;0.70;0.10;;;21.20;99.90;;;;;;5045691;28;20459;-72
2022/08/21 03:43:22;;;;;;;0.70;0.10;;;21.10;99.90;;;;;;5032182;28;20795;-73
2022/08/21 03:45:52;;;;;;;0.70;0.10;;;21.00;99.90;;;;;;5031653;28;20451;-73
2022/08/21 03:48:20;;;;;;;0.70;0.20;;;21.00;99.90;;;;;;5031599;28;20459;-72
2022/08/21 03:50:49;;;;;;;0.70;0.20;;;21.00;99.90;;;;;;5032831;28;20451;-72
2022/08/21 03:53:17;;;;;;;0.70;0.20;;;20.90;99.90;;;;;;5033018;28;20486;-72
2022/08/21 03:55:46;;;;;;;0.70;0.20;;;20.90;99.90;;;;;;5049127;28;20469;-72
2022/08/21 03:58:15;;;;;;;0.70;0.10;;;20.90;99.90;;;;;;5033213;28;20471;-73
2022/08/21 04:00:45;;;;;;;0.70;0.20;;;20.90;99.90;;;;;;5033267;28;20445;-72
2022/08/21 04:03:14;;;;;;;0.70;0.10;;;20.80;99.90;;;;;;5032467;28;20981;-72
2022/08/21 04:05:42;;;;;;;0.70;0.10;;;20.70;99.90;;;;;;5031841;28;20451;-72
2022/08/21 04:08:10;;;;;;;0.70;0.10;;;20.70;99.90;;;;;;5034495;28;20846;-72
2022/08/21 04:10:40;;;;;;;0.70;0.30;;;20.70;99.90;;;;;;5035891;28;20447;-72
2022/08/21 04:13:09;;;;;;;0.70;0.10;;;20.70;99.90;;;;;;5035624;28;20486;-72
2022/08/21 04:15:37;;;;;;;0.70;0.10;;;20.70;99.90;;;;;;5035729;28;20934;-72
2022/08/21 04:18:05;;;;;;;0.70;0.10;;;20.60;99.90;;;;;;5035518;28;20467;-72
2022/08/21 04:20:35;;;;;;;0.67;0.10;;;20.50;99.90;;;;;;5035651;28;20530;-72
2022/08/21 04:23:03;;;;;;;0.70;0.10;;;20.40;99.90;;;;;;5035368;28;20439;-72
2022/08/21 04:25:31;;;;;;;0.70;0.10;;;20.40;99.90;;;;;;5049679;28;20457;-72
2022/08/21 04:27:59;;;;;;;0.70;0.20;;;20.30;99.90;;;;;;5055006;28;20470;-71
2022/08/21 04:30:27;;;;;;;0.70;0.20;;;20.30;99.90;;;;;;5055093;28;20434;-71
2022/08/21 04:32:57;;;;;;;0.70;0.13;;;20.20;99.90;;;;;;5055221;28;21139;-72
2022/08/21 04:35:28;;;;;;;0.70;0.20;;;20.20;99.90;;;;;;5054827;28;20443;-71
2022/08/21 04:37:57;;;;;;;0.70;0.10;;;20.20;99.90;;;;;;5054556;28;20466;-71
2022/08/21 04:40:28;;;;;;;0.70;0.20;;;20.20;99.90;;;;;;5054650;28;20450;-71
2022/08/21 04:42:59;;;;;;;0.70;0.20;;;20.20;99.90;;;;;;5054891;28;20443;-70
2022/08/21 04:45:29;;;;;;;0.70;0.10;;;20.20;99.90;;;;;;5054735;28;20450;-71
2022/08/21 04:47:59;;;;;;;0.70;0.20;;;20.10;99.90;;;;;;5054721;28;20462;-70
2022/08/21 04:50:31;;;;;;;0.70;0.20;;;20.20;99.90;;;;;;5054750;28;20801;-71
2022/08/21 04:53:01;;;;;;;0.70;0.10;;;20.10;99.90;;;;;;5054547;28;20478;-71
2022/08/21 04:55:29;;;;;;;0.70;0.20;;;20.10;99.90;;;;;;5054750;28;20454;-72
2022/08/21 04:57:57;;;;;;;0.70;0.20;;;20.10;99.90;;;;;;5054445;28;20470;-72
2022/08/21 05:00:26;;;;;;;0.70;0.10;;;20.10;99.90;;;;;;5052913;28;20925;-71
2022/08/21 05:02:58;;;;;;;0.70;0.20;;;20.10;99.90;;;;;;5043812;28;20451;-71
2022/08/21 05:05:29;;;;;;;0.70;0.20;;;20.10;99.90;;;;;;5034400;28;20942;-71
2022/08/21 05:07:59;;;;;;;0.60;0.10;;;20.10;99.90;;;;;;5033992;28;20467;-71
2022/08/21 05:10:29;;;;;;;0.70;0.10;;;20.10;99.90;;;;;;5034486;28;20451;-72
2022/08/21 05:12:57;;;;;;;0.70;0.10;;;20.00;99.90;;;;;;5040126;28;21034;-71
2022/08/21 05:15:25;;;;;;;0.70;0.10;;;20.00;99.90;;;;;;5054198;28;20438;-71
2022/08/21 05:17:53;;;;;;;0.70;0.10;;;20.10;99.90;;;;;;5053308;28;20473;-72
2022/08/21 05:20:28;;;;;;;0.70;0.10;;;20.20;99.90;;;;;;5054156;28;20456;-72
2022/08/21 05:22:57;;;;;;;0.70;0.10;;;20.20;99.90;;;;;;5053933;28;20447;-72
2022/08/21 05:25:27;;;;;;;0.70;0.20;;;20.20;99.90;;;;;;5052979;28;20450;-70
2022/08/21 05:27:58;;;;;;;0.70;0.10;;;20.40;99.90;;;;;;5053172;28;20526;-72
2022/08/21 05:30:27;;;;;;;0.70;0.10;;;20.40;99.90;;;;;;5053599;28;20960;-71
2022/08/21 05:32:57;;;;;;;0.70;0.10;;;20.40;99.90;;;;;;5054184;28;20474;-72
2022/08/21 05:35:26;;;;;;;0.70;0.10;;;20.50;99.90;;;;;;5054568;28;20497;-73
2022/08/21 05:37:55;;;;;;;2.80;1.60;;;20.50;99.90;;;;;;5053493;28;20473;-72
2022/08/21 05:40:23;;;;;;;0.70;0.20;;;20.50;99.90;;;;;;5053441;28;20516;-72
2022/08/21 05:42:52;;;;;;;0.60;0.10;;;20.50;99.90;;;;;;5053742;28;20485;-72
2022/08/21 05:45:24;;;;;;;0.70;0.20;;;20.60;99.90;;;;;;5053380;28;20686;-72
2022/08/21 05:48:13;;;;;;;0.80;0.20;;;20.60;99.90;;;;;;5053217;28;20536;-71
2022/08/21 05:50:42;;;;;;;0.70;0.10;;;20.60;99.90;;;;;;5050423;28;20481;-72
2022/08/21 05:53:10;;;;;;;0.60;0.20;;;20.60;99.90;;;;;;5052945;28;20482;-71
2022/08/21 05:55:39;;;;;;;0.70;0.10;;;20.60;99.90;;;;;;5053550;28;20461;-71
2022/08/21 05:58:14;;;;;;;0.73;0.40;;;20.50;99.90;;;;;;5053352;28;20840;-73
2022/08/21 06:00:44;;;;;;;0.70;0.20;;;21.10;99.90;;;;;;5053075;28;20442;-74
2022/08/21 06:03:13;;;;;;;0.70;0.20;;;20.50;99.90;;;;;;5052998;28;20434;-73
2022/08/21 06:05:41;;;;;;;0.70;0.10;;;20.50;99.90;;;;;;5052903;28;20455;-75
2022/08/21 06:08:09;;;;;;;0.70;0.20;;;20.60;99.90;;;;;;5052702;28;20559;-73
2022/08/21 06:10:37;;;;;;;0.70;0.10;;;20.60;99.90;;;;;;5053005;28;20442;-71
2022/08/21 06:13:05;;;;;;;0.60;0.10;;;20.60;99.90;;;;;;5052831;28;20508;-72
2022/08/21 06:15:33;;;;;;;0.70;0.10;;;20.60;99.90;;;;;;5052220;28;20442;-73
2022/08/21 06:18:02;;;;;;;0.60;0.10;;;20.60;99.90;;;;;;5053448;28;20595;-71
2022/08/21 06:20:31;;;;;;;0.70;0.10;;;20.60;99.90;;;;;;5053143;28;20439;-72
2022/08/21 06:22:59;;;;;;;0.70;0.20;;;20.70;99.90;;;;;;5052274;28;20841;-74
2022/08/21 06:25:28;;;;;;;0.70;0.10;;;20.70;99.90;;;;;;5052138;28;20937;-74
2022/08/21 06:28:02;;;;;;;0.70;0.10;;;20.60;99.90;;;;;;5051899;28;20479;-74
2022/08/21 06:30:30;;;;;;;0.70;0.10;;;20.60;99.90;;;;;;5051973;28;20445;-72
2022/08/21 06:32:58;;;;;;;19.70;17.97;;;20.50;99.90;;;;;;5052227;28;20479;-72
2022/08/21 06:35:28;;;;;;;0.70;0.20;;;20.50;99.90;;;;;;5053997;28;20453;-72
2022/08/21 06:37:57;;;;;;;0.60;0.10;;;20.60;99.90;;;;;;5052692;28;20876;-72
2022/08/21 06:40:25;;;;;;;0.70;0.10;;;20.60;99.90;;;;;;5052198;28;20477;-75
2022/08/21 06:42:53;;;;;;;0.70;0.10;;;20.70;99.90;;;;;;5052620;28;20496;-72
2022/08/21 06:45:23;;;;;;;0.70;0.20;;;20.70;99.90;;;;;;5051926;28;21105;-72
2022/08/21 06:47:51;;;;;;;0.60;0.10;;;20.80;99.90;;;;;;5051868;28;20462;-72
2022/08/21 06:50:19;;;;;;;0.60;0.10;;;20.90;99.90;;;;;;5052171;28;20940;-73
2022/08/21 06:52:48;;;;;;;0.70;0.20;;;20.90;99.90;;;;;;5052192;28;20447;-72
2022/08/21 06:55:16;;;;;;;0.70;0.10;;;20.90;99.90;;;;;;5052984;28;20450;-71
2022/08/21 06:57:50;;;;;;;0.70;0.10;;;21.00;99.90;;;;;;5052123;28;20470;-72
2022/08/21 07:00:20;;;;;;;1.33;1.23;;;21.10;99.90;;;;;;5051879;28;20512;-73
2022/08/21 07:02:48;;;;;;;0.70;0.10;;;21.10;99.90;;;;;;5051816;28;20451;-73
2022/08/21 07:05:16;;;;;;;0.70;0.20;;;21.10;99.90;;;;;;5045898;28;20814;-72
2022/08/21 07:07:45;;;;;;;0.70;0.20;;;21.20;99.90;;;;;;5031648;28;20459;-73
2022/08/21 07:10:15;;;;;;;0.70;0.20;;;21.20;99.90;;;;;;5039200;28;20462;-73
2022/08/21 07:12:49;;;;;;;0.70;0.20;;;21.20;99.90;;;;;;5052323;28;20521;-72
2022/08/21 07:15:26;;;;;;;0.70;0.10;;;21.30;99.90;;;;;;5051903;28;20435;-71
2022/08/21 07:17:54;;;;;;;0.70;0.10;;;21.40;99.90;;;;;;5052706;28;20467;-71
2022/08/21 07:20:22;;;;;;;0.70;0.20;;;21.40;99.90;;;;;;5052854;28;20440;-72
2022/08/21 07:22:50;;;;;;;2.50;2.30;;;21.40;99.90;;;;;;5051836;28;20488;-72
2022/08/21 07:25:20;;;;;;;0.70;0.20;;;21.50;99.90;;;;;;5051789;28;20782;-73
2022/08/21 07:27:48;;;;;;;0.70;0.10;;;21.60;99.90;;;;;;5051284;28;20465;-72
2022/08/21 07:30:16;;;;;;;1.07;0.97;;;21.60;99.90;;;;;;5051574;28;20526;-72
2022/08/21 07:32:44;;;;;;;0.80;0.47;;;21.60;99.90;;;;;;5051356;28;20443;-73
2022/08/21 07:35:11;;;;;;;0.70;0.20;;;21.70;99.90;;;;;;5051710;28;20565;-74
2022/08/21 07:37:39;;;;;;;1.60;1.50;;;21.80;99.90;;;;;;5051416;28;20489;-72
2022/08/21 07:40:08;;;;;;;0.70;0.20;;;21.90;99.90;;;;;;5051723;28;20446;-73
2022/08/21 07:42:42;;;;;;;0.70;0.10;;;21.90;99.90;;;;;;5053309;28;21016;-72
2022/08/21 07:45:10;;;;;;;0.70;0.10;;;22.00;99.90;;;;;;5055214;28;20446;-73
2022/08/21 07:47:39;;;;;;;0.70;0.20;;;22.10;99.90;;;;;;5055078;28;20477;-73
2022/08/21 07:50:10;;;;;;;1.43;1.33;;;22.10;99.90;;;;;;5055238;28;20527;-72
2022/08/21 07:52:38;;;;;;;0.70;0.20;;;22.20;99.90;;;;;;5055093;28;20816;-71
2022/08/21 07:55:07;;;;;;;0.70;0.20;;;22.20;99.90;;;;;;5054951;28;20477;-73
2022/08/21 07:57:35;;;;;;;0.70;0.10;;;22.30;99.90;;;;;;5054875;28;21007;-73
2022/08/21 08:00:07;;;;;;;0.70;0.20;;;22.30;99.90;;;;;;5049349;28;20458;-73
2022/08/21 08:02:35;;;;;;;24.40;23.47;;;22.50;99.90;;;;;;5035567;28;20447;-73
2022/08/21 08:05:05;;;;;;;0.70;0.10;;;22.50;99.90;;;;;;5035249;28;20447;-73
2022/08/21 08:07:34;;;;;;;0.70;0.20;;;22.70;99.90;;;;;;5035021;28;20467;-75
2022/08/21 08:10:02;;;;;;;0.70;0.20;;;22.80;99.90;;;;;;5053575;28;20450;-72
2022/08/21 08:12:29;;;;;;;0.70;0.10;;;22.90;99.90;;;;;;5054819;28;20434;-73
2022/08/21 08:14:58;;;;;;;0.70;0.20;;;23.00;99.90;;;;;;5052858;28;20482;-74
2022/08/21 08:17:27;;;;;;;0.70;0.10;;;23.10;99.90;;;;;;5054116;28;20536;-72
2022/08/21 08:19:55;;;;;;;0.70;0.10;;;23.10;99.90;;;;;;5054716;28;20451;-72
2022/08/21 08:22:24;;;;;;;0.70;0.20;;;23.10;99.90;;;;;;5054678;28;20453;-73
2022/08/21 08:24:53;;;;;;;0.70;0.20;;;23.10;99.90;;;;;;5052293;28;20441;-71
2022/08/21 08:27:22;;;;;;;0.70;0.10;;;23.10;99.90;;;;;;5054046;28;20977;-72
2022/08/21 08:29:51;;;;;;;0.70;0.10;;;23.10;99.90;;;;;;5054363;28;20975;-71
2022/08/21 08:32:19;;;;;;;0.70;0.10;;;23.20;99.90;;;;;;5049940;28;20451;-72
2022/08/21 08:34:51;;;;;;;0.70;0.20;;;23.20;99.90;;;;;;5054008;28;20887;-72
2022/08/21 08:37:20;;;;;;;0.70;0.20;;;23.20;99.90;;;;;;5047701;28;20463;-72
2022/08/21 08:39:52;;;;;;;0.70;0.10;;;23.20;99.90;;;;;;5054440;28;20438;-72
2022/08/21 08:42:32;;;;;;;0.70;0.20;;;23.30;99.90;;;;;;5054052;28;20805;-72
2022/08/21 08:45:06;;;;;;;0.70;0.20;;;23.30;99.90;;;;;;5054351;28;20442;-74
2022/08/21 08:47:37;;;;;;;0.70;0.10;;;23.30;99.90;;;;;;5054088;28;21210;-73
2022/08/21 08:50:11;;;;;;;0.70;0.10;;;23.30;99.90;;;;;;5042681;28;20448;-72
2022/08/21 08:52:46;;;;;;;0.70;0.10;;;23.40;99.90;;;;;;5050150;28;20449;-72
2022/08/21 08:55:18;;;;;;;0.70;0.20;;;23.50;99.90;;;;;;5054219;28;20469;-74
2022/08/21 08:57:49;;;;;;;0.70;0.20;;;23.70;99.90;;;;;;5053972;28;20462;-75
2022/08/21 09:00:21;;;;;;;0.90;0.77;;;23.70;99.90;;;;;;5054013;28;20451;-74
2022/08/21 09:02:52;;;;;;;0.70;0.20;;;23.80;99.90;;;;;;5053852;28;20531;-72
2022/08/21 09:05:24;;;;;;;0.70;0.10;;;23.70;99.90;;;;;;5053760;28;20450;-72
2022/08/21 09:08:07;;;;;;;0.70;0.10;;;23.80;99.90;;;;;;5053245;28;20462;-76
2022/08/21 09:10:45;;;;;;;0.70;0.30;;;23.80;99.90;;;;;;5053338;28;20446;-71
2022/08/21 09:13:23;;;;;;;0.70;0.10;;;23.80;99.90;;;;;;5047569;28;20500;-73
2022/08/21 09:16:01;;;;;;;0.70;0.10;;;23.90;99.90;;;;;;5053562;28;20469;-72
2022/08/21 09:18:49;;;;;;;0.70;0.20;;;23.80;99.90;;;;;;5053022;28;20542;-72
2022/08/21 09:21:27;;;;;;;0.70;0.10;;;23.90;99.90;;;;;;5033762;28;20757;-72
2022/08/21 09:24:01;;;;;;;0.70;0.20;;;23.90;99.90;;;;;;5051769;28;20454;-72
2022/08/21 09:26:36;;;;;;;0.70;0.20;;;24.00;99.90;;;;;;5053490;28;20442;-73
2022/08/21 09:29:05;;;;;;;0.80;0.20;;;24.10;99.90;;;;;;5053136;28;20465;-73
2022/08/21 09:31:37;;;;;;;0.70;0.10;;;24.10;99.90;;;;;;5053659;28;20443;-73
2022/08/21 09:34:07;;;;;;;0.70;0.10;;;24.10;99.90;;;;;;5053015;28;20439;-75
2022/08/21 09:36:40;;;;;;;0.70;0.10;;;24.10;99.90;;;;;;5053330;28;20478;-72
2022/08/21 09:39:10;;;;;;;0.70;0.20;;;24.20;99.90;;;;;;5053621;28;20838;-74
2022/08/21 09:41:39;;;;;;;0.70;0.20;;;24.30;99.90;;;;;;5043627;28;20524;-72
2022/08/21 09:44:09;;;;;;;0.70;0.10;;;24.40;99.90;;;;;;5049926;28;20465;-74
2022/08/21 09:46:37;;;;;;;0.70;0.20;;;24.60;99.90;;;;;;5052675;28;20435;-72
2022/08/21 09:49:05;;;;;;;0.70;0.20;;;24.70;99.90;;;;;;5053803;28;20467;-73
2022/08/21 09:51:52;;;;;;;0.70;0.20;;;24.70;99.90;;;;;;5052908;28;20936;-74
2022/08/21 09:54:24;;;;;;;0.70;0.10;;;24.80;99.90;;;;;;5048383;28;20957;-72
2022/08/21 09:59:40;;;;;;;1.63;0.40;;;24.90;99.90;;;;;;5035390;28;20440;-72
2022/08/21 10:02:27;;;;;;;1.53;1.43;;;24.80;99.90;;;;;;5033202;28;20443;-71
2022/08/21 10:04:57;;;;;;;0.70;0.40;;;24.80;99.90;;;;;;5032331;28;20956;-71
2022/08/21 10:07:29;;;;;;;0.70;0.10;;;24.90;99.90;;;;;;5035844;28;20496;-71
2022/08/21 10:10:01;;;;;;;0.70;0.10;;;24.90;99.90;;;;;;5047591;28;20902;-70
2022/08/21 10:12:42;;;;;;;0.70;0.20;;;25.10;99.90;;;;;;5051583;28;20449;-69
2022/08/21 10:15:20;;;;;;;0.70;0.20;;;25.20;99.90;;;;;;5051947;28;20489;-71
2022/08/21 10:17:57;;;;;;;0.80;0.50;;;25.30;99.90;;;;;;5045984;28;20470;-72
2022/08/21 10:20:31;;;;;;;0.70;0.20;;;25.30;99.90;;;;;;5046186;28;20948;-71
2022/08/21 10:23:11;;;;;;;0.70;0.13;;;25.40;99.90;;;;;;5052321;28;20450;-72
2022/08/21 10:25:44;;;;;;;0.70;0.10;;;25.50;99.90;;;;;;5052067;28;20434;-72
2022/08/21 10:28:38;;;;;;;0.70;0.20;;;25.40;99.90;;;;;;5051246;28;20485;-72
2022/08/21 10:31:37;;;;;;;0.70;0.10;;;25.30;99.90;;;;;;5046777;28;20450;-72
2022/08/21 10:34:19;;;;;;;1.57;1.07;;;25.30;99.90;;;;;;5051776;28;20458;-73
2022/08/21 10:36:53;;;;;;;0.70;0.10;;;25.20;99.90;;;;;;5053236;28;20565;-71
2022/08/21 10:39:29;;;;;;;0.70;0.20;;;25.10;99.90;;;;;;5052634;28;20434;-73
2022/08/21 10:42:33;;;;;;;0.70;0.10;;;25.20;99.90;;;;;;5052704;28;20937;-71
2022/08/21 10:45:11;;;;;;;0.70;0.20;;;25.60;99.90;;;;;;5055071;28;20816;-73
2022/08/21 10:47:46;;;;;;;0.70;0.20;;;25.60;99.90;;;;;;5052541;28;20558;-72
2022/08/21 10:50:25;;;;;;;0.70;0.20;;;25.70;99.90;;;;;;5051175;28;20462;-72
2022/08/21 10:53:06;;;;;;;0.70;0.20;;;25.70;99.90;;;;;;5055106;28;20461;-73
2022/08/21 10:55:40;;;;;;;0.70;0.20;;;25.80;99.90;;;;;;5055229;28;20837;-72
2022/08/21 10:58:11;;;;;;;0.70;0.20;;;25.70;99.90;;;;;;5053177;28;20463;-72
2022/08/21 11:00:46;;;;;;;0.70;0.10;;;25.70;99.90;;;;;;5048328;28;20458;-71
2022/08/21 11:03:18;;;;;;;0.70;0.10;;;25.70;99.90;;;;;;5045392;28;20471;-71
2022/08/21 11:05:52;;;;;;;0.70;0.10;;;25.70;99.90;;;;;;5042933;28;20470;-73
2022/08/21 11:08:24;;;;;;;4.03;2.53;;;25.60;99.90;;;;;;5044779;28;20466;-72
2022/08/21 11:10:59;;;;;;;0.70;0.17;;;25.50;99.90;;;;;;5050983;28;21024;-74
2022/08/21 11:13:35;;;;;;;0.70;0.10;;;25.40;99.90;;;;;;5032409;28;20496;-76
2022/08/21 11:16:08;;;;;;;0.70;0.10;;;25.30;99.90;;;;;;5031491;28;20485;-75
2022/08/21 11:18:39;;;;;;;1.80;1.70;;;25.40;99.90;;;;;;5032014;28;20467;-74
2022/08/21 11:21:15;;;;;;;0.70;0.20;;;25.40;99.90;;;;;;5051165;28;20454;-75
2022/08/21 11:23:48;;;;;;;0.70;0.20;;;25.50;99.90;;;;;;5039321;28;20453;-75
2022/08/21 11:26:24;;;;;;;0.70;0.20;;;25.70;99.90;;;;;;5032009;28;20432;-75
2022/08/21 11:28:56;;;;;;;0.70;0.20;;;25.90;99.90;;;;;;5037632;28;20497;-75
2022/08/21 11:31:42;;;;;;;0.70;0.10;;;26.00;99.90;;;;;;5052258;28;20453;-77
2022/08/21 11:34:25;;;;;;;0.70;0.20;;;26.10;99.90;;;;;;5052000;28;20454;-75
2022/08/21 11:37:02;;;;;;;0.70;0.20;;;26.20;99.90;;;;;;5041921;28;20478;-76
2022/08/21 11:39:40;;;;;;;0.80;0.50;;;26.20;99.90;;;;;;5045558;28;20462;-76
2022/08/21 11:42:20;;;;;;;3.23;1.03;;;26.30;99.90;;;;;;5043141;28;20431;-76
2022/08/21 11:44:56;;;;;;;0.70;0.10;;;26.30;99.90;;;;;;5051524;28;20450;-75
2022/08/21 11:47:41;;;;;;;0.70;0.20;;;26.30;99.90;;;;;;5050625;28;20465;-74
2022/08/21 11:50:15;;;;;;;0.70;0.10;;;26.30;99.90;;;;;;5031266;28;20962;-75
2022/08/21 11:53:08;;;;;;;0.70;0.10;;;26.40;99.90;;;;;;5035072;28;20466;-76
2022/08/21 11:55:41;;;;;;;0.70;0.10;;;26.30;99.90;;;;;;5047390;28;20511;-75
2022/08/21 11:58:17;;;;;;;0.70;0.10;;;26.50;99.90;;;;;;5049896;28;20836;-75
2022/08/21 12:00:50;;;;;;;0.70;0.20;;;26.60;99.90;;;;;;5051261;28;20458;-75
2022/08/21 12:03:26;;;;;;;0.70;0.20;;;26.80;99.90;;;;;;5050890;28;20443;-76
2022/08/21 12:05:57;;;;;;;0.70;0.20;;;27.10;99.90;;;;;;5051545;28;20434;-74
2022/08/21 12:08:31;;;;;;;0.70;0.20;;;27.10;99.90;;;;;;5046526;28;20459;-75
2022/08/21 12:11:06;;;;;;;0.70;0.20;;;27.10;99.90;;;;;;5031138;28;20439;-74
2022/08/21 12:13:39;;;;;;;0.87;0.53;;;27.30;99.90;;;;;;5030974;28;20439;-76
2022/08/21 12:16:12;;;;;;;0.70;0.20;;;27.30;99.90;;;;;;5030703;28;20481;-78
2022/08/21 12:18:41;;;;;;;0.93;0.30;;;27.30;99.90;;;;;;5030865;28;20462;-78
2022/08/21 12:21:24;;;;;;;0.70;0.20;;;27.30;99.90;;;;;;5032981;28;20451;-76
2022/08/21 12:24:03;;;;;;;0.70;0.20;;;27.40;99.90;;;;;;5033086;28;20538;-78
2022/08/21 12:26:34;;;;;;;0.70;0.20;;;27.40;99.90;;;;;;5046785;28;20976;-78
2022/08/21 12:29:13;;;;;;;0.70;0.10;;;27.50;99.90;;;;;;5011840;28;1074587;-80
2022/08/21 12:31:54;;;;;;;0.70;0.20;;;27.40;99.90;;;;;;5063996;28;20454;-80
2022/08/21 12:34:27;;;;;;;3.33;2.57;;;27.30;99.90;;;;;;5053455;28;20438;-77
2022/08/21 12:36:59;;;;;;;1.60;1.50;;;27.10;99.90;;;;;;5039951;28;20531;-78
2022/08/21 12:39:30;;;;;;;0.70;0.10;;;27.00;99.90;;;;;;5037950;28;20447;-77
2022/08/21 12:42:04;;;;;;;0.70;0.10;;;27.10;99.90;;;;;;5039475;28;20542;-75
2022/08/21 12:44:39;;;;;;;0.70;0.10;;;27.20;99.90;;;;;;5053290;28;20489;-77
2022/08/21 12:47:16;;;;;;;0.70;0.10;;;27.10;99.90;;;;;;5044921;28;20841;-76
2022/08/21 12:49:55;;;;;;;0.70;0.20;;;27.10;99.90;;;;;;5051921;28;20445;-76
2022/08/21 12:52:28;;;;;;;0.70;0.17;;;27.10;99.90;;;;;;5041032;28;20435;-76
2022/08/21 12:54:56;;;;;;;0.70;0.20;;;27.10;99.90;;;;;;5041117;28;20453;-74
2022/08/21 12:57:27;;;;;;;0.70;0.20;;;27.30;99.90;;;;;;5048435;28;20482;-77
2022/08/21 12:59:59;;;;;;;0.70;0.10;;;27.40;99.90;;;;;;5033593;28;20592;-76
2022/08/21 13:02:32;;;;;;;0.70;0.20;;;27.50;99.90;;;;;;5034543;28;20455;-76
2022/08/21 13:05:05;;;;;;;0.70;0.10;;;27.80;99.90;;;;;;5050596;28;20451;-77
2022/08/21 13:07:36;;;;;;;0.70;0.20;;;27.80;99.90;;;;;;5053580;28;20607;-74
2022/08/21 13:10:10;;;;;;;0.70;0.20;;;27.70;99.90;;;;;;5054214;28;20461;-74